createdAt,value
2022-12-15T00:01:25.699Z,82.26
2022-12-15T00:04:12.886Z,82.24
2022-12-15T00:06:59.244Z,82.22
2022-12-15T00:09:49.573Z,82.20
2022-12-15T00:12:36.134Z,82.20
2022-12-15T00:15:26.925Z,82.20
2022-12-15T00:18:13.482Z,82.21
2022-12-15T00:20:59.828Z,82.20
2022-12-15T00:23:46.132Z,82.17
2022-12-15T00:26:32.556Z,82.08
2022-12-15T00:29:18.929Z,81.96
2022-12-15T00:32:07.332Z,81.84
2022-12-15T00:34:53.632Z,81.78
2022-12-15T00:37:40.306Z,81.76
2022-12-15T00:40:11.170Z,81.79
2022-12-15T00:42:39.316Z,81.83
2022-12-15T00:45:11.162Z,81.94
2022-12-15T00:47:42.206Z,82.05
2022-12-15T00:50:29.147Z,82.12
2022-12-15T00:53:15.963Z,82.12
2022-12-15T00:56:02.753Z,82.16
2022-12-15T00:58:49.298Z,82.20
2022-12-15T01:01:35.752Z,82.39
2022-12-15T01:04:24.110Z,82.57
2022-12-15T01:07:10.596Z,82.85
2022-12-15T01:09:57.360Z,83.05
2022-12-15T01:12:43.814Z,83.16
2022-12-15T01:15:35.081Z,83.21
2022-12-15T01:18:24.156Z,83.07
2022-12-15T01:21:00.508Z,82.80
2022-12-15T01:23:38.038Z,82.82
2022-12-15T01:26:09.637Z,82.67
2022-12-15T01:28:37.784Z,82.73
2022-12-15T01:31:16.664Z,82.85
2022-12-15T01:33:44.721Z,82.85
2022-12-15T01:36:12.777Z,82.74
2022-12-15T01:38:40.610Z,82.61
2022-12-15T01:41:16.180Z,82.48
2022-12-15T01:43:44.212Z,82.39
2022-12-15T01:46:22.222Z,82.33
2022-12-15T01:49:15.859Z,82.22
2022-12-15T01:51:52.550Z,82.12
2022-12-15T01:54:27.557Z,82.05
2022-12-15T01:57:04.225Z,81.92
2022-12-15T01:59:40.980Z,81.88
2022-12-15T02:02:09.125Z,81.81
2022-12-15T02:04:42.306Z,81.76
2022-12-15T02:07:17.480Z,81.71
2022-12-15T02:09:51.157Z,81.62
2022-12-15T02:12:37.515Z,81.52
2022-12-15T02:15:31.800Z,81.46
2022-12-15T02:18:15.149Z,81.35
2022-12-15T02:20:46.156Z,81.30
2022-12-15T02:23:28.948Z,81.16
2022-12-15T02:26:26.379Z,81.09
2022-12-15T02:29:16.188Z,81.06
2022-12-15T02:31:52.401Z,81.01
2022-12-15T02:35:00.006Z,80.96
2022-12-15T02:37:43.070Z,80.96
2022-12-15T02:40:14.010Z,80.95
2022-12-15T02:42:51.745Z,80.95
2022-12-15T02:45:32.370Z,80.94
2022-12-15T02:48:34.362Z,80.95
2022-12-15T02:51:05.640Z,80.99
2022-12-15T02:53:38.936Z,81.02
2022-12-15T02:56:16.679Z,81.03
2022-12-15T02:58:56.672Z,81.01
2022-12-15T03:01:50.773Z,81.02
2022-12-15T03:04:23.650Z,81.03
2022-12-15T03:07:03.982Z,81.08
2022-12-15T03:09:36.090Z,81.10
2022-12-15T03:12:08.418Z,81.10
2022-12-15T03:14:36.283Z,81.11
2022-12-15T03:17:11.284Z,81.11
2022-12-15T03:19:43.398Z,81.12
2022-12-15T03:22:11.734Z,81.14
2022-12-15T03:24:40.667Z,81.14
2022-12-15T03:27:09.734Z,81.14
2022-12-15T03:29:41.719Z,81.15
2022-12-15T03:32:09.751Z,81.14
2022-12-15T03:34:46.007Z,81.13
2022-12-15T03:37:13.864Z,81.14
2022-12-15T03:39:41.705Z,81.14
2022-12-15T03:42:09.586Z,81.13
2022-12-15T03:44:41.743Z,81.14
2022-12-15T03:47:09.578Z,81.12
2022-12-15T03:49:37.409Z,81.12
2022-12-15T03:52:05.461Z,81.11
2022-12-15T03:54:33.228Z,81.10
2022-12-15T03:57:01.043Z,81.09
2022-12-15T03:59:33.273Z,81.09
2022-12-15T04:02:01.495Z,81.10
2022-12-15T04:04:33.125Z,81.10
2022-12-15T04:07:01.282Z,81.12
2022-12-15T04:09:31.660Z,81.13
2022-12-15T04:11:59.685Z,81.15
2022-12-15T04:14:34.244Z,81.15
2022-12-15T04:17:02.140Z,81.16
2022-12-15T04:19:52.910Z,81.17
2022-12-15T04:22:25.886Z,81.19
2022-12-15T04:25:12.493Z,81.21
2022-12-15T04:28:01.664Z,81.23
2022-12-15T04:30:54.311Z,81.26
2022-12-15T04:33:48.224Z,81.26
2022-12-15T04:36:39.010Z,81.30
2022-12-15T04:39:25.840Z,81.35
2022-12-15T04:42:17.154Z,81.39
2022-12-15T04:45:08.572Z,81.39
2022-12-15T04:47:55.317Z,81.42
2022-12-15T04:50:42.179Z,81.50
2022-12-15T04:53:35.355Z,81.52
2022-12-15T04:56:30.689Z,81.56
2022-12-15T04:59:21.746Z,81.61
2022-12-15T05:02:08.875Z,81.61
2022-12-15T05:04:55.536Z,81.65
2022-12-15T05:07:46.701Z,81.79
2022-12-15T05:10:33.471Z,81.84
2022-12-15T05:13:28.371Z,81.94
2022-12-15T05:16:18.640Z,81.97
2022-12-15T05:19:06.256Z,82.00
2022-12-15T05:21:52.962Z,82.05
2022-12-15T05:24:39.203Z,82.15
2022-12-15T05:27:25.989Z,82.18
2022-12-15T05:30:16.565Z,82.17
2022-12-15T05:32:44.658Z,82.21
2022-12-15T05:35:13.760Z,82.23
2022-12-15T05:37:41.865Z,82.28
2022-12-15T05:40:13.745Z,82.37
2022-12-15T05:42:41.782Z,82.44
2022-12-15T05:45:12.188Z,82.43
2022-12-15T05:47:40.018Z,82.52
2022-12-15T05:50:10.860Z,82.61
2022-12-15T05:52:38.900Z,82.64
2022-12-15T05:55:09.938Z,82.68
2022-12-15T05:57:41.060Z,82.70
2022-12-15T06:00:13.177Z,82.68
2022-12-15T06:02:41.328Z,82.68
2022-12-15T06:05:11.651Z,82.70
2022-12-15T06:07:39.701Z,82.69
2022-12-15T06:10:11.423Z,82.75
2022-12-15T06:12:39.314Z,82.80
2022-12-15T06:15:10.307Z,82.76
2022-12-15T06:17:38.159Z,82.74
2022-12-15T06:20:09.931Z,82.71
2022-12-15T06:22:37.996Z,82.79
2022-12-15T06:25:09.965Z,82.79
2022-12-15T06:27:38.184Z,82.85
2022-12-15T06:30:10.115Z,82.89
2022-12-15T06:32:37.988Z,82.93
2022-12-15T06:35:09.937Z,82.97
2022-12-15T06:37:38.083Z,83.05
2022-12-15T06:40:10.574Z,83.16
2022-12-15T06:42:38.676Z,83.27
2022-12-15T06:45:10.709Z,83.16
2022-12-15T06:47:38.770Z,83.15
2022-12-15T06:50:12.074Z,83.01
2022-12-15T06:52:40.115Z,83.03
2022-12-15T06:55:12.488Z,82.99
2022-12-15T06:57:40.591Z,82.92
2022-12-15T07:00:15.623Z,82.98
2022-12-15T07:02:43.812Z,82.93
2022-12-15T07:05:25.198Z,82.99
2022-12-15T07:07:56.048Z,82.96
2022-12-15T07:10:24.035Z,83.01
2022-12-15T07:12:51.862Z,82.96
2022-12-15T07:15:19.716Z,82.97
2022-12-15T07:17:51.232Z,83.05
2022-12-15T07:20:21.825Z,83.10
2022-12-15T07:22:58.617Z,83.26
2022-12-15T07:25:29.077Z,83.34
2022-12-15T07:27:57.053Z,83.41
2022-12-15T07:30:25.115Z,83.51
2022-12-15T07:32:57.202Z,83.52
2022-12-15T07:35:29.611Z,83.42
2022-12-15T07:38:05.664Z,83.48
2022-12-15T07:40:38.005Z,83.51
2022-12-15T07:43:05.827Z,83.47
2022-12-15T07:45:33.716Z,83.48
2022-12-15T07:48:02.881Z,83.47
2022-12-15T07:50:30.956Z,83.50
2022-12-15T07:53:01.605Z,83.48
2022-12-15T07:55:57.206Z,83.50
2022-12-15T07:58:17.507Z,83.50
2022-12-15T08:00:48.847Z,83.43
2022-12-15T08:03:21.357Z,83.41
2022-12-15T08:06:03.782Z,83.35
2022-12-15T08:08:36.660Z,83.32
2022-12-15T08:11:14.365Z,83.32
2022-12-15T08:14:03.979Z,83.32
2022-12-15T08:16:40.640Z,83.28
2022-12-15T08:19:16.922Z,83.25
2022-12-15T08:21:49.949Z,83.23
2022-12-15T08:24:22.027Z,83.18
2022-12-15T08:26:54.281Z,83.14
2022-12-15T08:29:50.191Z,83.09
2022-12-15T08:32:10.468Z,83.02
2022-12-15T08:34:49.106Z,82.94
2022-12-15T08:37:17.009Z,82.91
2022-12-15T08:39:53.703Z,82.82
2022-12-15T08:42:22.597Z,82.77
2022-12-15T08:44:50.526Z,82.71
2022-12-15T08:47:18.373Z,82.66
2022-12-15T08:49:46.209Z,82.57
2022-12-15T08:52:18.095Z,82.51
2022-12-15T08:54:45.954Z,82.44
2022-12-15T08:57:13.889Z,82.37
2022-12-15T08:59:44.127Z,82.30
2022-12-15T09:02:17.055Z,82.27
2022-12-15T09:04:49.575Z,82.23
2022-12-15T09:07:20.414Z,82.17
2022-12-15T09:09:51.006Z,82.06
2022-12-15T09:12:19.059Z,82.01
2022-12-15T09:14:46.958Z,82.05
2022-12-15T09:17:18.923Z,81.97
2022-12-15T09:19:51.180Z,81.92
2022-12-15T09:22:21.947Z,81.81
2022-12-15T09:24:54.461Z,81.66
2022-12-15T09:27:22.369Z,81.64
2022-12-15T09:29:52.624Z,81.56
2022-12-15T09:32:20.700Z,81.41
2022-12-15T09:34:53.913Z,81.46
2022-12-15T09:37:22.035Z,81.34
2022-12-15T09:39:49.884Z,81.31
2022-12-15T09:42:28.359Z,81.31
2022-12-15T09:45:12.514Z,81.24
2022-12-15T09:47:57.993Z,81.25
2022-12-15T09:50:41.040Z,81.11
2022-12-15T09:53:53.112Z,80.92
2022-12-15T09:56:21.687Z,80.86
2022-12-15T09:59:30.694Z,80.64
2022-12-15T10:02:21.661Z,80.69
2022-12-15T10:05:57.627Z,80.55
2022-12-15T10:08:28.227Z,80.42
2022-12-15T10:11:04.075Z,80.18
2022-12-15T10:13:46.219Z,80.21
2022-12-15T10:16:50.229Z,80.11
2022-12-15T10:19:49.954Z,79.91
2022-12-15T10:22:39.792Z,79.55
2022-12-15T10:25:30.179Z,79.16
2022-12-15T10:28:21.817Z,78.49
2022-12-15T10:31:02.481Z,78.71
2022-12-15T10:33:47.060Z,78.07
2022-12-15T10:36:22.839Z,78.02
2022-12-15T10:38:50.862Z,77.36
2022-12-15T10:41:31.887Z,76.69
2022-12-15T10:43:59.777Z,77.59
2022-12-15T10:46:36.365Z,77.19
2022-12-15T10:49:07.517Z,77.01
2022-12-15T10:52:00.691Z,76.85
2022-12-15T10:54:48.402Z,75.99
2022-12-15T10:57:23.541Z,75.89
2022-12-15T10:59:56.628Z,75.91
2022-12-15T11:02:34.761Z,76.07
2022-12-15T11:05:16.679Z,76.10
2022-12-15T11:07:52.823Z,76.45
2022-12-15T11:10:53.532Z,76.26
2022-12-15T11:13:33.016Z,75.83
2022-12-15T11:16:16.691Z,75.62
2022-12-15T11:19:10.307Z,75.80
2022-12-15T11:21:56.510Z,75.69
2022-12-15T11:24:48.880Z,75.28
2022-12-15T11:27:25.269Z,75.41
2022-12-15T11:30:10.973Z,76.00
2022-12-15T11:32:47.305Z,76.30
2022-12-15T11:35:46.213Z,76.56
2022-12-15T11:38:49.398Z,76.68
2022-12-15T11:41:38.604Z,76.84
2022-12-15T11:44:24.719Z,76.81
2022-12-15T11:47:01.477Z,76.82
2022-12-15T11:50:04.946Z,76.80
2022-12-15T11:52:58.855Z,76.99
2022-12-15T11:55:58.025Z,77.06
2022-12-15T11:58:44.029Z,77.18
2022-12-15T12:01:43.121Z,77.16
2022-12-15T12:04:28.177Z,76.89
2022-12-15T12:07:24.021Z,77.05
2022-12-15T12:10:28.054Z,76.93
2022-12-15T12:13:18.500Z,77.08
2022-12-15T12:16:13.099Z,77.19
2022-12-15T12:19:19.624Z,77.32
2022-12-15T12:21:56.820Z,77.15
2022-12-15T12:24:51.001Z,77.21
2022-12-15T12:27:53.460Z,77.30
2022-12-15T12:30:34.723Z,77.36
2022-12-15T12:33:03.937Z,77.39
2022-12-15T12:35:56.614Z,77.50
2022-12-15T12:38:56.371Z,77.56
2022-12-15T12:41:31.491Z,77.71
2022-12-15T12:44:14.105Z,77.76
2022-12-15T12:46:54.462Z,77.81
2022-12-15T12:49:37.748Z,77.89
2022-12-15T12:52:26.237Z,77.99
2022-12-15T12:55:21.458Z,77.98
2022-12-15T12:57:54.290Z,78.08
2022-12-15T13:00:28.490Z,78.12
2022-12-15T13:02:59.718Z,78.18
2022-12-15T13:05:37.940Z,78.29
2022-12-15T13:08:06.161Z,78.28
2022-12-15T13:10:47.526Z,78.33
2022-12-15T13:13:32.522Z,78.41
2022-12-15T13:16:22.610Z,78.45
2022-12-15T13:19:11.615Z,78.51
2022-12-15T13:21:48.557Z,78.54
2022-12-15T13:24:40.376Z,78.60
2022-12-15T13:27:16.741Z,78.72
2022-12-15T13:30:00.389Z,78.77
2022-12-15T13:33:15.919Z,78.90
2022-12-15T13:35:46.412Z,78.93
2022-12-15T13:38:21.549Z,79.00
2022-12-15T13:40:50.521Z,79.07
2022-12-15T13:43:46.971Z,79.15
2022-12-15T13:46:31.015Z,79.22
2022-12-15T13:49:25.341Z,79.32
2022-12-15T13:52:06.843Z,79.32
2022-12-15T13:54:41.925Z,79.44
2022-12-15T13:57:19.655Z,79.47
2022-12-15T13:59:56.788Z,79.54
2022-12-15T14:02:36.121Z,79.64
2022-12-15T14:05:22.459Z,79.64
2022-12-15T14:10:58.110Z,79.74
2022-12-15T14:13:36.196Z,79.71
2022-12-15T14:16:23.297Z,79.74
2022-12-15T14:19:17.437Z,79.75
2022-12-15T14:21:54.696Z,79.83
2022-12-15T14:27:32.587Z,79.88
2022-12-15T14:30:18.203Z,79.98
2022-12-15T14:32:58.426Z,80.06
2022-12-15T14:35:39.563Z,80.09
2022-12-15T14:38:20.762Z,80.21
2022-12-15T14:40:56.286Z,80.30
2022-12-15T14:43:32.400Z,80.34
2022-12-15T14:46:09.152Z,80.44
2022-12-15T14:48:53.509Z,80.48
2022-12-15T14:51:23.566Z,80.57
2022-12-15T14:53:53.512Z,80.64
2022-12-15T14:56:27.649Z,80.69
2022-12-15T14:59:19.708Z,80.76
2022-12-15T15:02:06.250Z,80.76
2022-12-15T15:03:16.234Z,79.68
2022-12-15T15:04:40.050Z,80.76
2022-12-15T15:07:18.271Z,80.74
2022-12-15T15:09:50.697Z,80.74
2022-12-15T15:12:38.978Z,80.70
2022-12-15T15:15:20.810Z,80.64
2022-12-15T15:17:58.562Z,80.60
2022-12-15T15:20:36.086Z,80.63
2022-12-15T15:23:16.818Z,80.67
2022-12-15T15:25:56.566Z,80.69
2022-12-15T15:28:46.175Z,80.72
2022-12-15T15:31:42.029Z,80.73
2022-12-15T15:34:14.922Z,80.77
2022-12-15T15:36:43.146Z,80.78
2022-12-15T15:39:17.308Z,80.81
2022-12-15T15:41:45.146Z,80.89
2022-12-15T15:44:15.578Z,80.96
2022-12-15T15:46:52.584Z,81.01
2022-12-15T15:49:25.464Z,81.12
2022-12-15T15:51:59.576Z,81.14
2022-12-15T15:54:36.555Z,81.22
2022-12-15T15:57:04.373Z,81.27
2022-12-15T15:59:39.392Z,81.33
2022-12-15T16:02:13.912Z,81.40
2022-12-15T16:04:44.867Z,81.41
2022-12-15T16:07:29.542Z,81.46
2022-12-15T16:09:57.805Z,81.53
2022-12-15T16:12:36.684Z,81.61
2022-12-15T16:15:21.744Z,81.67
2022-12-15T16:17:54.694Z,81.73
2022-12-15T16:20:29.235Z,81.80
2022-12-15T16:23:07.565Z,81.85
2022-12-15T16:25:50.582Z,81.89
2022-12-15T16:28:29.162Z,81.96
2022-12-15T16:31:02.627Z,81.99
2022-12-15T16:33:30.550Z,82.02
2022-12-15T16:36:02.698Z,82.04
2022-12-15T16:38:36.229Z,82.04
2022-12-15T16:41:12.953Z,82.03
2022-12-15T16:43:48.074Z,82.03
2022-12-15T16:46:20.751Z,82.06
2022-12-15T16:48:48.900Z,82.06
2022-12-15T16:51:39.026Z,82.09
2022-12-15T16:54:33.880Z,82.06
2022-12-15T16:57:06.455Z,82.01
2022-12-15T16:59:35.719Z,82.00
2022-12-15T17:02:35.935Z,81.94
2022-12-15T17:05:04.201Z,81.88
2022-12-15T17:07:36.420Z,81.90
2022-12-15T17:10:07.592Z,82.00
2022-12-15T17:12:39.935Z,82.04
2022-12-15T17:15:29.105Z,82.06
2022-12-15T17:18:01.269Z,82.09
2022-12-15T17:20:33.867Z,82.08
2022-12-15T17:23:12.711Z,82.05
2022-12-15T17:26:21.012Z,82.01
2022-12-15T17:28:40.765Z,81.98
2022-12-15T17:31:18.639Z,81.97
2022-12-15T17:33:50.928Z,81.91
2022-12-15T17:36:28.257Z,81.85
2022-12-15T17:39:01.714Z,81.80
2022-12-15T17:41:58.760Z,81.70
2022-12-15T17:44:40.826Z,81.65
2022-12-15T17:47:17.741Z,81.55
2022-12-15T17:49:51.547Z,81.49
2022-12-15T17:52:31.530Z,81.47
2022-12-15T17:55:19.227Z,81.43
2022-12-15T17:57:52.164Z,81.40
2022-12-15T18:00:32.724Z,81.36
2022-12-15T18:03:04.786Z,81.34
2022-12-15T18:05:33.278Z,81.29
2022-12-15T18:08:19.439Z,81.17
2022-12-15T18:10:53.629Z,81.03
2022-12-15T18:13:35.286Z,80.86
2022-12-15T18:16:10.190Z,80.83
2022-12-15T18:18:38.513Z,80.78
2022-12-15T18:21:18.178Z,80.80
2022-12-15T18:23:51.873Z,80.79
2022-12-15T18:26:19.843Z,80.79
2022-12-15T18:28:53.747Z,80.80
2022-12-15T18:31:31.887Z,80.76
2022-12-15T18:34:04.345Z,80.73
2022-12-15T18:36:39.510Z,80.68
2022-12-15T18:39:21.770Z,80.66
2022-12-15T18:41:54.877Z,80.55
2022-12-15T18:44:31.712Z,80.49
2022-12-15T18:47:03.995Z,80.38
2022-12-15T18:49:32.118Z,80.37
2022-12-15T18:52:02.844Z,80.22
2022-12-15T18:54:34.156Z,80.18
2022-12-15T18:57:02.217Z,80.15
2022-12-15T18:59:33.228Z,80.08
2022-12-15T19:02:01.482Z,79.94
2022-12-15T19:04:29.937Z,79.85
2022-12-15T19:06:57.788Z,79.83
2022-12-15T19:09:25.855Z,79.76
2022-12-15T19:12:12.314Z,79.75
2022-12-15T19:14:40.151Z,79.53
2022-12-15T19:17:34.932Z,79.44
2022-12-15T19:20:24.372Z,79.36
2022-12-15T19:22:53.452Z,79.36
2022-12-15T19:25:27.837Z,79.29
2022-12-15T19:27:59.258Z,79.19
2022-12-15T19:30:41.579Z,79.15
2022-12-15T19:33:15.353Z,79.22
2022-12-15T19:35:47.143Z,79.19
2022-12-15T19:38:25.616Z,79.17
2022-12-15T19:40:57.876Z,79.14
2022-12-15T19:43:33.642Z,79.11
2022-12-15T19:46:02.041Z,78.99
2022-12-15T19:48:33.798Z,78.92
2022-12-15T19:51:01.651Z,78.77
2022-12-15T19:53:37.925Z,78.76
2022-12-15T19:56:18.962Z,78.71
2022-12-15T19:58:46.946Z,78.59
2022-12-15T20:01:21.313Z,78.52
2022-12-15T20:03:55.304Z,78.49
2022-12-15T20:06:28.661Z,78.49
2022-12-15T20:08:58.774Z,78.46
2022-12-15T20:11:33.133Z,78.44
2022-12-15T20:14:15.435Z,78.44
2022-12-15T20:16:50.537Z,78.41
2022-12-15T20:19:18.808Z,78.39
2022-12-15T20:21:46.980Z,78.38
2022-12-15T20:24:19.792Z,78.41
2022-12-15T20:26:50.753Z,78.41
2022-12-15T20:29:36.152Z,78.51
2022-12-15T20:32:21.085Z,78.66
2022-12-15T20:34:51.042Z,78.81
2022-12-15T20:37:27.261Z,78.96
2022-12-15T20:39:57.683Z,79.10
2022-12-15T20:42:28.815Z,79.31
2022-12-15T20:44:57.419Z,79.53
2022-12-15T20:47:30.950Z,79.68
2022-12-15T20:49:59.595Z,79.85
2022-12-15T20:52:28.098Z,80.02
2022-12-15T20:54:57.587Z,80.19
2022-12-15T20:57:25.548Z,80.28
2022-12-15T20:59:56.236Z,80.40
2022-12-15T21:02:24.605Z,80.42
2022-12-15T21:05:00.128Z,80.44
2022-12-15T21:07:28.092Z,80.59
2022-12-15T21:09:55.959Z,80.75
2022-12-15T21:12:30.231Z,80.83
2022-12-15T21:15:03.137Z,80.95
2022-12-15T21:17:31.103Z,81.10
2022-12-15T21:19:59.178Z,81.24
2022-12-15T21:22:34.011Z,81.31
2022-12-15T21:25:21.124Z,81.36
2022-12-15T21:27:49.318Z,81.42
2022-12-15T21:30:24.931Z,81.53
2022-12-15T21:32:57.526Z,81.60
2022-12-15T21:35:30.177Z,81.65
2022-12-15T21:38:02.099Z,81.63
2022-12-15T21:40:30.289Z,81.69
2022-12-15T21:43:03.219Z,81.70
2022-12-15T21:45:36.411Z,81.77
2022-12-15T21:48:23.091Z,81.83
2022-12-15T21:50:50.985Z,81.94
2022-12-15T21:53:19.873Z,81.96
2022-12-15T21:55:49.789Z,82.01
2022-12-15T21:58:21.033Z,82.07
2022-12-15T22:00:48.883Z,82.13
2022-12-15T22:03:16.854Z,82.21
2022-12-15T22:05:44.791Z,82.27
2022-12-15T22:08:19.053Z,82.30
2022-12-15T22:10:49.172Z,82.35
2022-12-15T22:13:22.258Z,82.41
2022-12-15T22:15:51.588Z,82.45
2022-12-15T22:18:20.180Z,82.51
2022-12-15T22:20:50.034Z,82.52
2022-12-15T22:23:19.379Z,82.57
2022-12-15T22:25:51.461Z,82.55
2022-12-15T22:28:25.946Z,82.60
2022-12-15T22:30:56.128Z,82.63
2022-12-15T22:33:26.410Z,82.68
2022-12-15T22:35:56.141Z,82.69
2022-12-15T22:38:24.775Z,82.67
2022-12-15T22:40:55.670Z,82.68
2022-12-15T22:43:39.660Z,82.68
2022-12-15T22:46:13.398Z,82.69
2022-12-15T22:48:44.997Z,82.62
2022-12-15T22:51:14.830Z,82.66
2022-12-15T22:53:43.416Z,82.69
2022-12-15T22:56:23.459Z,82.72
2022-12-15T22:58:58.501Z,82.77
2022-12-15T23:01:28.027Z,82.79
2022-12-15T23:03:56.133Z,82.85
2022-12-15T23:06:26.601Z,82.87
2022-12-15T23:08:56.313Z,82.88
2022-12-15T23:11:37.313Z,82.95
2022-12-15T23:14:07.224Z,82.95
2022-12-15T23:16:37.502Z,82.92
2022-12-15T23:19:08.277Z,82.80
2022-12-15T23:21:36.732Z,82.87
2022-12-15T23:24:04.976Z,82.90
2022-12-15T23:26:33.316Z,82.95
2022-12-15T23:29:01.359Z,83.06
2022-12-15T23:31:29.492Z,83.14
2022-12-15T23:33:57.708Z,83.16
2022-12-15T23:36:25.782Z,83.07
2022-12-15T23:38:55.586Z,83.09
2022-12-15T23:41:23.448Z,83.12
2022-12-15T23:43:51.560Z,83.15
2022-12-15T23:46:20.116Z,83.21
2022-12-15T23:48:48.260Z,83.20
2022-12-15T23:51:18.831Z,83.11
2022-12-15T23:53:48.262Z,83.15
2022-12-15T23:56:19.868Z,83.23
2022-12-15T23:58:53.966Z,83.26
